Time;durP1;ratioP1;P1;durP2;ratioP2;P2;SDS_P1;SDS_P2;PMS_P1;PMS_P2;Temp;Humidity;BMP_temperature;BMP_pressure;BME280_temperature;BME280_humidity;BME280_pressure;Samples;Min_cycle;Max_cycle;Signal;HPM_P1;HPM_P2
2023/05/20 00:00:57;;;;;;;19.53;10.00;;;;;;;;;;5030919;28;20728;-75
2023/05/20 00:03:26;;;;;;;17.13;10.53;;;;;;;;;;5031339;28;20669;-75
2023/05/20 00:05:53;;;;;;;15.80;10.00;;;;;;;;;;5031623;28;20231;-74
2023/05/20 00:08:20;;;;;;;21.43;10.07;;;;;;;;;;5031242;28;20592;-75
2023/05/20 00:10:47;;;;;;;15.27;9.80;;;;;;;;;;5031527;28;20216;-75
2023/05/20 00:13:15;;;;;;;16.63;9.97;;;;;;;;;;5029040;28;20197;-75
2023/05/20 00:15:42;;;;;;;16.00;9.33;;;;;;;;;;5038128;28;20235;-75
2023/05/20 00:18:09;;;;;;;16.57;9.80;;;;;;;;;;5031475;28;20232;-75
2023/05/20 00:20:37;;;;;;;15.40;9.63;;;;;;;;;;5030954;28;20279;-75
2023/05/20 00:23:05;;;;;;;17.23;10.77;;;;;;;;;;5031732;28;20295;-75
2023/05/20 00:25:32;;;;;;;16.43;9.80;;;;;;;;;;5025566;28;20232;-75
2023/05/20 00:27:59;;;;;;;17.53;10.20;;;;;;;;;;5028612;28;20310;-75
2023/05/20 00:30:26;;;;;;;19.00;10.40;;;;;;;;;;5031136;28;20201;-75
2023/05/20 00:32:54;;;;;;;18.57;10.27;;;;;;;;;;5031425;28;20324;-75
2023/05/20 00:35:21;;;;;;;17.30;10.07;;;;;;;;;;5031401;28;20325;-75
2023/05/20 00:37:49;;;;;;;15.50;9.53;;;;;;;;;;5031498;28;20207;-76
2023/05/20 00:40:16;;;;;;;15.83;9.33;;;;;;;;;;5031199;28;20620;-75
2023/05/20 00:42:44;;;;;;;16.03;9.23;;;;;;;;;;5030468;28;20760;-75
2023/05/20 00:45:11;;;;;;;16.37;9.40;;;;;;;;;;5031385;28;20661;-74
2023/05/20 00:47:39;;;;;;;19.07;9.87;;;;;;;;;;5031169;28;20247;-76
2023/05/20 00:50:07;;;;;;;16.57;9.60;;;;;;;;;;5031148;28;20318;-75
2023/05/20 00:52:34;;;;;;;16.33;10.07;;;;;;;;;;5030970;28;20570;-76
2023/05/20 00:55:03;;;;;;;18.03;9.67;;;;;;;;;;5027675;28;20288;-75
2023/05/20 00:57:30;;;;;;;17.00;9.93;;;;;;;;;;5033409;28;20739;-75
2023/05/20 00:59:58;;;;;;;14.57;9.70;;;;;;;;;;5035154;28;20633;-75
2023/05/20 01:02:25;;;;;;;18.53;9.77;;;;;;;;;;5018776;28;20232;-74
2023/05/20 01:04:55;;;;;;;16.63;10.00;;;;;;;;;;5015584;28;20288;-75
2023/05/20 01:07:22;;;;;;;18.23;10.07;;;;;;;;;;5016026;28;20204;-74
2023/05/20 01:09:51;;;;;;;19.03;9.50;;;;;;;;;;5024916;28;20277;-75
2023/05/20 01:12:22;;;;;;;18.90;10.00;;;;;;;;;;5034686;28;20209;-74
2023/05/20 01:14:50;;;;;;;15.83;9.30;;;;;;;;;;5046041;28;20290;-75
2023/05/20 01:17:19;;;;;;;15.07;9.13;;;;;;;;;;5054858;28;20199;-75
2023/05/20 01:19:47;;;;;;;16.50;9.37;;;;;;;;;;5054834;28;20680;-75
2023/05/20 01:22:15;;;;;;;15.83;9.80;;;;;;;;;;5054511;28;20203;-75
2023/05/20 01:24:47;;;;;;;15.73;9.60;;;;;;;;;;5054199;28;20265;-74
2023/05/20 01:27:14;;;;;;;16.00;9.80;;;;;;;;;;5035876;28;20197;-75
2023/05/20 01:29:41;;;;;;;17.37;10.03;;;;;;;;;;5034696;28;20322;-75
2023/05/20 01:32:11;;;;;;;18.03;9.53;;;;;;;;;;5034287;28;20200;-75
2023/05/20 01:34:40;;;;;;;21.80;10.07;;;;;;;;;;5032902;28;20246;-75
2023/05/20 01:37:07;;;;;;;18.73;9.80;;;;;;;;;;5026107;28;20219;-75
2023/05/20 01:39:36;;;;;;;17.80;10.57;;;;;;;;;;5013415;28;20209;-74
2023/05/20 01:42:06;;;;;;;19.50;10.40;;;;;;;;;;5013051;28;20197;-75
2023/05/20 01:44:34;;;;;;;18.07;10.17;;;;;;;;;;5013511;28;20648;-75
2023/05/20 01:47:01;;;;;;;19.40;10.43;;;;;;;;;;5013391;28;20208;-75
2023/05/20 01:49:28;;;;;;;17.87;9.50;;;;;;;;;;5013532;28;20280;-75
2023/05/20 01:51:55;;;;;;;16.70;10.00;;;;;;;;;;5022796;28;20199;-75
2023/05/20 01:54:23;;;;;;;16.53;9.93;;;;;;;;;;5018990;28;20200;-75
2023/05/20 01:56:50;;;;;;;17.67;10.13;;;;;;;;;;5013768;28;20959;-74
2023/05/20 01:59:18;;;;;;;24.77;10.20;;;;;;;;;;5032570;28;20263;-75
2023/05/20 02:01:46;;;;;;;18.87;9.80;;;;;;;;;;5033063;28;20298;-75
2023/05/20 02:04:13;;;;;;;18.30;10.50;;;;;;;;;;5031965;28;20291;-74
2023/05/20 02:06:40;;;;;;;17.33;9.93;;;;;;;;;;5032449;28;20196;-75
2023/05/20 02:09:07;;;;;;;19.53;9.97;;;;;;;;;;5032034;28;20314;-75
2023/05/20 02:11:35;;;;;;;17.67;10.10;;;;;;;;;;5032828;28;20236;-74
2023/05/20 02:14:02;;;;;;;17.27;9.83;;;;;;;;;;5037149;28;20721;-75
2023/05/20 02:16:30;;;;;;;17.70;10.43;;;;;;;;;;5052691;28;20222;-75
2023/05/20 02:18:57;;;;;;;17.57;9.60;;;;;;;;;;5052490;28;20212;-75
2023/05/20 02:21:25;;;;;;;20.13;10.07;;;;;;;;;;5052209;28;20227;-75
2023/05/20 02:23:52;;;;;;;20.87;10.27;;;;;;;;;;5051727;28;20198;-76
2023/05/20 02:26:19;;;;;;;18.77;10.03;;;;;;;;;;5052560;28;20203;-75
2023/05/20 02:28:49;;;;;;;16.77;10.30;;;;;;;;;;5052391;28;20599;-75
2023/05/20 02:31:17;;;;;;;20.33;10.13;;;;;;;;;;5052142;28;20295;-75
2023/05/20 02:33:46;;;;;;;16.83;9.90;;;;;;;;;;5013517;28;1116533;-75
2023/05/20 02:36:13;;;;;;;19.37;9.60;;;;;;;;;;5053334;28;20285;-75
2023/05/20 02:38:40;;;;;;;20.67;10.93;;;;;;;;;;5052905;28;20287;-75
2023/05/20 02:41:07;;;;;;;19.30;9.70;;;;;;;;;;5053517;28;20238;-76
2023/05/20 02:43:35;;;;;;;14.30;9.37;;;;;;;;;;5053027;28;20252;-75
2023/05/20 02:46:02;;;;;;;19.47;9.87;;;;;;;;;;5048704;28;20199;-74
2023/05/20 02:48:29;;;;;;;15.63;9.60;;;;;;;;;;5020051;28;20729;-75
2023/05/20 02:50:59;;;;;;;18.60;10.43;;;;;;;;;;5013369;28;20257;-75
2023/05/20 02:53:26;;;;;;;19.03;10.77;;;;;;;;;;5032867;28;20283;-74
2023/05/20 02:55:53;;;;;;;19.87;10.47;;;;;;;;;;5032736;28;20239;-73
2023/05/20 02:58:25;;;;;;;17.07;9.40;;;;;;;;;;5033014;28;20231;-75
2023/05/20 03:00:52;;;;;;;18.63;10.20;;;;;;;;;;5029928;28;20201;-75
2023/05/20 03:03:19;;;;;;;14.77;9.50;;;;;;;;;;5032976;28;20220;-75
2023/05/20 03:05:46;;;;;;;22.53;10.60;;;;;;;;;;5032590;28;20227;-75
2023/05/20 03:08:15;;;;;;;22.77;10.20;;;;;;;;;;5032641;28;20299;-75
2023/05/20 03:10:42;;;;;;;20.03;10.30;;;;;;;;;;5032820;28;20326;-75
2023/05/20 03:13:10;;;;;;;19.63;10.60;;;;;;;;;;5032500;28;20649;-75
2023/05/20 03:15:37;;;;;;;20.20;9.83;;;;;;;;;;5050613;28;20211;-75
2023/05/20 03:18:04;;;;;;;15.33;9.60;;;;;;;;;;5038572;28;20219;-75
2023/05/20 03:20:32;;;;;;;16.47;10.33;;;;;;;;;;5031747;28;20239;-75
2023/05/20 03:22:59;;;;;;;14.80;9.83;;;;;;;;;;5032433;28;20195;-74
2023/05/20 03:25:28;;;;;;;19.03;10.67;;;;;;;;;;5032398;28;20232;-75
2023/05/20 03:27:57;;;;;;;17.17;10.10;;;;;;;;;;5032247;28;20300;-75
2023/05/20 03:30:24;;;;;;;20.90;11.00;;;;;;;;;;5032434;28;20318;-74
2023/05/20 03:32:52;;;;;;;17.70;10.67;;;;;;;;;;5032343;28;20780;-75
2023/05/20 03:35:19;;;;;;;20.57;11.13;;;;;;;;;;5031517;28;20205;-75
2023/05/20 03:37:46;;;;;;;21.27;10.90;;;;;;;;;;5032789;28;20195;-75
2023/05/20 03:40:13;;;;;;;20.17;12.53;;;;;;;;;;5032213;28;20306;-75
2023/05/20 03:42:42;;;;;;;22.63;12.00;;;;;;;;;;5032170;28;20234;-75
2023/05/20 03:45:09;;;;;;;20.80;11.77;;;;;;;;;;5032058;28;20196;-75
2023/05/20 03:47:37;;;;;;;23.30;11.67;;;;;;;;;;5031265;28;20728;-75
2023/05/20 03:50:04;;;;;;;20.90;11.43;;;;;;;;;;5020771;28;20852;-75
2023/05/20 03:52:32;;;;;;;22.20;12.30;;;;;;;;;;5012220;28;20665;-75
2023/05/20 03:54:59;;;;;;;26.50;12.53;;;;;;;;;;5029078;28;20231;-75
2023/05/20 03:57:26;;;;;;;22.97;11.93;;;;;;;;;;5031698;28;20212;-75
2023/05/20 03:59:55;;;;;;;23.13;12.07;;;;;;;;;;5016397;28;20299;-74
2023/05/20 04:02:22;;;;;;;22.10;12.23;;;;;;;;;;5012737;28;20294;-74
2023/05/20 04:04:52;;;;;;;26.97;13.20;;;;;;;;;;5011486;28;20227;-74
2023/05/20 04:07:19;;;;;;;25.80;13.00;;;;;;;;;;5011842;28;20664;-75
2023/05/20 04:09:46;;;;;;;26.70;13.20;;;;;;;;;;5012033;28;20614;-75
2023/05/20 04:12:13;;;;;;;20.50;13.27;;;;;;;;;;5011820;28;20252;-75
2023/05/20 04:14:41;;;;;;;25.13;13.33;;;;;;;;;;5032506;28;20279;-75
2023/05/20 04:17:10;;;;;;;27.13;13.33;;;;;;;;;;5041873;28;20209;-74
2023/05/20 04:19:38;;;;;;;26.87;13.80;;;;;;;;;;5031434;28;20295;-75
2023/05/20 04:22:05;;;;;;;26.77;14.00;;;;;;;;;;5031490;28;20208;-75
2023/05/20 04:24:32;;;;;;;21.10;12.87;;;;;;;;;;5031706;28;20237;-75
2023/05/20 04:27:00;;;;;;;33.93;14.43;;;;;;;;;;5031321;28;20228;-75
2023/05/20 04:29:28;;;;;;;29.43;13.87;;;;;;;;;;5031226;28;20265;-75
2023/05/20 04:31:57;;;;;;;31.97;14.70;;;;;;;;;;5031204;28;20199;-75
2023/05/20 04:34:26;;;;;;;24.50;13.80;;;;;;;;;;5030964;28;20235;-74
2023/05/20 04:36:53;;;;;;;27.97;14.43;;;;;;;;;;5031143;28;20277;-75
2023/05/20 04:39:20;;;;;;;29.33;14.33;;;;;;;;;;5031375;28;20289;-74
2023/05/20 04:41:48;;;;;;;24.43;14.37;;;;;;;;;;5031177;28;20199;-75
2023/05/20 04:44:15;;;;;;;22.87;13.53;;;;;;;;;;5031301;28;20200;-76
2023/05/20 04:46:43;;;;;;;32.83;14.47;;;;;;;;;;5031238;28;20285;-75
2023/05/20 04:49:10;;;;;;;26.70;14.70;;;;;;;;;;5027533;28;20346;-75
2023/05/20 04:51:40;;;;;;;29.47;14.93;;;;;;;;;;5011296;28;20582;-75
2023/05/20 04:54:07;;;;;;;26.70;14.60;;;;;;;;;;5020722;28;20207;-75
2023/05/20 04:56:35;;;;;;;27.47;14.57;;;;;;;;;;5031173;28;20729;-75
2023/05/20 04:59:02;;;;;;;26.33;14.63;;;;;;;;;;5031322;28;20200;-74
2023/05/20 05:01:29;;;;;;;29.93;15.33;;;;;;;;;;5030544;28;20211;-74
2023/05/20 05:03:56;;;;;;;35.27;15.93;;;;;;;;;;5030768;28;20196;-74
2023/05/20 05:06:23;;;;;;;28.30;15.40;;;;;;;;;;5030787;28;20688;-74
2023/05/20 05:08:52;;;;;;;36.57;15.97;;;;;;;;;;5030828;28;20645;-75
2023/05/20 05:11:20;;;;;;;30.97;16.03;;;;;;;;;;5030884;28;20241;-74
2023/05/20 05:13:47;;;;;;;29.87;15.10;;;;;;;;;;5033840;28;20210;-75
2023/05/20 05:16:14;;;;;;;29.43;15.57;;;;;;;;;;5050179;28;20287;-73
2023/05/20 05:18:41;;;;;;;25.67;15.33;;;;;;;;;;5050621;28;20290;-75
2023/05/20 05:21:08;;;;;;;28.13;15.57;;;;;;;;;;5050645;28;20630;-74
2023/05/20 05:23:35;;;;;;;28.40;15.73;;;;;;;;;;5050937;28;20735;-75
2023/05/20 05:26:04;;;;;;;30.93;15.97;;;;;;;;;;5050774;28;20200;-74
2023/05/20 05:28:31;;;;;;;31.57;16.33;;;;;;;;;;5050389;28;20300;-74
2023/05/20 05:30:58;;;;;;;29.03;15.80;;;;;;;;;;5050048;28;20235;-74
2023/05/20 05:33:26;;;;;;;30.37;15.57;;;;;;;;;;5050900;28;20230;-74
2023/05/20 05:35:53;;;;;;;32.13;15.47;;;;;;;;;;5050517;28;20199;-75
2023/05/20 05:38:20;;;;;;;27.03;16.13;;;;;;;;;;5050412;28;20676;-76
2023/05/20 05:40:47;;;;;;;32.67;15.60;;;;;;;;;;5050275;28;20235;-74
2023/05/20 05:43:16;;;;;;;27.20;15.47;;;;;;;;;;5052099;28;20677;-74
2023/05/20 05:45:43;;;;;;;30.07;16.20;;;;;;;;;;5054410;28;20227;-75
2023/05/20 05:48:10;;;;;;;29.07;16.33;;;;;;;;;;5054304;28;20341;-75
2023/05/20 05:50:37;;;;;;;29.30;15.63;;;;;;;;;;5054057;28;20268;-75
2023/05/20 05:53:05;;;;;;;21.90;14.53;;;;;;;;;;5052462;28;20237;-75
2023/05/20 05:55:32;;;;;;;23.93;14.73;;;;;;;;;;5034199;28;20202;-76
2023/05/20 05:57:59;;;;;;;26.67;14.33;;;;;;;;;;5034265;28;20295;-74
2023/05/20 06:00:27;;;;;;;23.33;14.43;;;;;;;;;;5033741;28;20254;-75
2023/05/20 06:02:55;;;;;;;23.30;14.50;;;;;;;;;;5034101;28;20228;-75
2023/05/20 06:05:22;;;;;;;30.07;14.43;;;;;;;;;;5033969;28;20246;-75
2023/05/20 06:07:49;;;;;;;24.30;14.47;;;;;;;;;;5034039;28;20280;-75
2023/05/20 06:10:16;;;;;;;24.37;13.27;;;;;;;;;;5033497;28;20320;-75
2023/05/20 06:12:43;;;;;;;24.17;13.40;;;;;;;;;;5033983;28;20296;-75
2023/05/20 06:15:11;;;;;;;25.10;14.23;;;;;;;;;;5047633;28;20291;-75
2023/05/20 06:17:39;;;;;;;21.47;13.13;;;;;;;;;;5053596;28;20283;-75
2023/05/20 06:20:07;;;;;;;28.07;14.67;;;;;;;;;;5053797;28;20302;-74
2023/05/20 06:22:35;;;;;;;21.43;13.10;;;;;;;;;;5053471;28;20282;-75
2023/05/20 06:25:02;;;;;;;19.27;12.77;;;;;;;;;;5053311;28;20243;-75
2023/05/20 06:27:29;;;;;;;22.50;13.03;;;;;;;;;;5053699;28;20723;-75
2023/05/20 06:29:56;;;;;;;21.40;12.97;;;;;;;;;;5053008;28;20286;-76
2023/05/20 06:32:23;;;;;;;21.67;13.47;;;;;;;;;;5053364;28;20219;-75
2023/05/20 06:34:52;;;;;;;21.57;13.23;;;;;;;;;;5053204;28;20231;-75
2023/05/20 06:37:19;;;;;;;17.87;12.83;;;;;;;;;;5053161;28;20290;-75
2023/05/20 06:39:50;;;;;;;24.57;13.43;;;;;;;;;;5053592;28;20794;-75
2023/05/20 06:42:17;;;;;;;25.33;13.57;;;;;;;;;;5053271;28;20199;-74
2023/05/20 06:44:44;;;;;;;22.97;12.33;;;;;;;;;;5052650;28;20639;-74
2023/05/20 06:47:11;;;;;;;19.10;13.07;;;;;;;;;;5053334;28;20817;-74
2023/05/20 06:49:38;;;;;;;19.87;12.80;;;;;;;;;;5053093;28;20281;-75
2023/05/20 06:52:07;;;;;;;18.13;12.73;;;;;;;;;;5052846;28;20318;-75
2023/05/20 06:54:38;;;;;;;21.57;12.77;;;;;;;;;;5037670;28;20283;-75
2023/05/20 06:57:06;;;;;;;16.83;12.67;;;;;;;;;;5033644;28;20661;-75
2023/05/20 06:59:33;;;;;;;21.53;12.10;;;;;;;;;;5032341;28;20319;-75
2023/05/20 07:02:00;;;;;;;23.23;12.40;;;;;;;;;;5033265;28;20635;-75
2023/05/20 07:04:27;;;;;;;16.97;11.50;;;;;;;;;;5033113;28;20204;-75
2023/05/20 07:06:55;;;;;;;18.43;11.30;;;;;;;;;;5032787;28;20612;-75
2023/05/20 07:09:23;;;;;;;20.87;11.73;;;;;;;;;;5032715;28;20204;-75
2023/05/20 07:11:50;;;;;;;20.60;11.70;;;;;;;;;;5033028;28;20315;-75
2023/05/20 07:14:18;;;;;;;20.23;12.57;;;;;;;;;;5031922;28;20228;-74
2023/05/20 07:16:45;;;;;;;25.03;12.97;;;;;;;;;;5032455;28;20201;-75
2023/05/20 07:19:12;;;;;;;21.30;12.47;;;;;;;;;;5019609;28;20205;-76
2023/05/20 07:21:39;;;;;;;18.67;12.00;;;;;;;;;;5012852;28;20279;-75
2023/05/20 07:24:07;;;;;;;19.27;12.87;;;;;;;;;;5012576;28;20233;-75
2023/05/20 07:26:35;;;;;;;17.17;11.87;;;;;;;;;;5012604;28;20291;-75
2023/05/20 07:29:03;;;;;;;17.13;12.23;;;;;;;;;;5012928;28;20616;-76
2023/05/20 07:31:30;;;;;;;21.70;13.07;;;;;;;;;;5023032;28;20362;-75
2023/05/20 07:33:58;;;;;;;21.20;12.60;;;;;;;;;;5031999;28;20224;-75
2023/05/20 07:36:26;;;;;;;21.80;12.23;;;;;;;;;;5031434;28;20793;-75
2023/05/20 07:38:53;;;;;;;22.50;12.83;;;;;;;;;;5032195;28;20303;-75
2023/05/20 07:41:21;;;;;;;19.37;11.37;;;;;;;;;;5029908;28;20284;-75
2023/05/20 07:43:50;;;;;;;19.53;12.23;;;;;;;;;;5012471;28;20201;-75
2023/05/20 07:46:17;;;;;;;15.70;11.10;;;;;;;;;;5020070;28;20220;-75
2023/05/20 07:48:44;;;;;;;20.10;11.33;;;;;;;;;;5030166;28;20687;-75
2023/05/20 07:51:12;;;;;;;19.33;11.93;;;;;;;;;;5020161;28;20275;-75
2023/05/20 07:53:39;;;;;;;17.33;10.60;;;;;;;;;;5020194;28;20228;-75
2023/05/20 07:56:07;;;;;;;20.87;10.97;;;;;;;;;;5028498;28;20242;-75
2023/05/20 07:58:34;;;;;;;18.33;10.90;;;;;;;;;;5031469;28;20279;-76
2023/05/20 08:01:03;;;;;;;15.83;10.77;;;;;;;;;;5020781;28;20283;-75
2023/05/20 08:03:30;;;;;;;16.95;10.95;;;;;;;;;;5032024;28;20200;-76
2023/05/20 08:05:57;;;;;;;19.15;11.05;;;;;;;;;;5030584;28;20274;-75
2023/05/20 08:08:24;;;;;;;18.58;10.90;;;;;;;;;;5031587;28;20200;-76
2023/05/20 08:10:52;;;;;;;17.40;10.73;;;;;;;;;;5031499;28;20240;-75
2023/05/20 08:13:19;;;;;;;16.48;10.35;;;;;;;;;;5031059;28;20201;-74
2023/05/20 08:15:47;;;;;;;18.52;10.35;;;;;;;;;;5030494;28;20288;-76
2023/05/20 08:18:16;;;;;;;15.73;10.02;;;;;;;;;;5030892;28;20204;-75
2023/05/20 08:20:43;;;;;;;19.85;10.60;;;;;;;;;;5030587;28;20304;-75
2023/05/20 08:23:10;;;;;;;14.05;10.23;;;;;;;;;;5029761;28;20192;-75
2023/05/20 08:25:37;;;;;;;19.80;10.15;;;;;;;;;;5029976;28;20303;-76
2023/05/20 08:28:06;;;;;;;16.35;8.68;;;;;;;;;;5031466;28;20195;-77
2023/05/20 08:30:33;;;;;;;17.27;9.07;;;;;;;;;;5030846;28;20255;-76
2023/05/20 08:33:00;;;;;;;14.25;8.70;;;;;;;;;;5031208;28;20267;-76
2023/05/20 08:35:29;;;;;;;14.70;8.30;;;;;;;;;;5031214;28;20283;-76
2023/05/20 08:37:57;;;;;;;10.75;7.65;;;;;;;;;;5029986;28;20200;-77
2023/05/20 08:40:24;;;;;;;14.30;8.57;;;;;;;;;;5029207;28;20204;-77
2023/05/20 08:42:52;;;;;;;16.25;9.38;;;;;;;;;;5020317;28;20303;-79
2023/05/20 08:45:20;;;;;;;13.75;8.23;;;;;;;;;;5029275;28;20287;-76
2023/05/20 08:47:47;;;;;;;14.25;8.00;;;;;;;;;;5030581;28;20685;-77
2023/05/20 08:50:15;;;;;;;17.75;7.70;;;;;;;;;;5029695;28;20735;-78
2023/05/20 08:52:44;;;;;;;12.88;7.85;;;;;;;;;;5028991;28;20669;-78
2023/05/20 08:55:15;;;;;;;23.63;9.40;;;;;;;;;;5026261;28;20569;-77
2023/05/20 08:57:44;;;;;;;17.63;8.10;;;;;;;;;;5030720;28;20200;-77
2023/05/20 09:00:12;;;;;;;17.38;8.00;;;;;;;;;;5030335;28;20575;-78
2023/05/20 09:02:39;;;;;;;14.38;7.60;;;;;;;;;;5024551;28;20208;-78
2023/05/20 09:05:08;;;;;;;14.23;7.13;;;;;;;;;;5031659;28;20631;-78
2023/05/20 09:07:35;;;;;;;13.52;7.35;;;;;;;;;;5030720;28;20200;-78
2023/05/20 09:10:03;;;;;;;11.50;7.07;;;;;;;;;;5030837;28;20231;-78
2023/05/20 09:12:31;;;;;;;11.70;7.10;;;;;;;;;;5031100;28;20732;-77
2023/05/20 09:14:58;;;;;;;13.43;7.28;;;;;;;;;;5033534;28;20649;-77
2023/05/20 09:17:25;;;;;;;10.88;7.07;;;;;;;;;;5031291;28;20291;-78
2023/05/20 09:19:53;;;;;;;13.20;7.18;;;;;;;;;;5032515;28;20290;-77
2023/05/20 09:22:23;;;;;;;12.27;7.22;;;;;;;;;;5033732;28;20211;-77
2023/05/20 09:24:51;;;;;;;12.50;7.22;;;;;;;;;;5031706;28;20209;-78
2023/05/20 09:27:20;;;;;;;14.93;7.65;;;;;;;;;;5027043;28;20284;-78
2023/05/20 09:29:48;;;;;;;11.02;6.63;;;;;;;;;;5033760;28;20227;-77
2023/05/20 09:32:16;;;;;;;13.35;6.85;;;;;;;;;;5033880;28;20236;-78
2023/05/20 09:34:44;;;;;;;10.45;6.20;;;;;;;;;;5021992;28;20268;-78
2023/05/20 09:37:11;;;;;;;11.93;6.82;;;;;;;;;;5030435;28;20200;-78
2023/05/20 09:39:47;;;;;;;12.45;6.90;;;;;;;;;;5030219;28;20661;-77
2023/05/20 09:42:17;;;;;;;11.80;6.78;;;;;;;;;;5023232;28;20259;-77
2023/05/20 09:44:47;;;;;;;12.07;6.75;;;;;;;;;;5026283;28;20299;-79
2023/05/20 09:47:15;;;;;;;13.40;6.75;;;;;;;;;;5031163;28;20250;-79
2023/05/20 09:49:43;;;;;;;12.48;6.60;;;;;;;;;;5030957;28;20283;-78
2023/05/20 09:52:10;;;;;;;15.55;6.13;;;;;;;;;;5033613;28;20331;-78
2023/05/20 09:54:38;;;;;;;11.90;6.70;;;;;;;;;;5033178;28;20299;-78
2023/05/20 09:57:05;;;;;;;12.27;6.40;;;;;;;;;;5034777;28;20232;-79
2023/05/20 09:59:34;;;;;;;10.80;5.30;;;;;;;;;;5034021;28;20231;-78
2023/05/20 10:02:02;;;;;;;10.68;5.22;;;;;;;;;;5034450;28;20200;-78
2023/05/20 10:04:31;;;;;;;8.20;5.30;;;;;;;;;;5034209;28;20721;-79
2023/05/20 10:07:16;;;;;;;8.05;5.13;;;;;;;;;;5033553;28;20628;-79
2023/05/20 10:09:53;;;;;;;13.45;5.30;;;;;;;;;;5033764;28;20772;-78
2023/05/20 10:12:26;;;;;;;9.15;4.80;;;;;;;;;;5033729;28;20232;-79
2023/05/20 10:14:58;;;;;;;9.68;4.63;;;;;;;;;;5045359;28;20204;-77
2023/05/20 10:17:31;;;;;;;9.65;4.85;;;;;;;;;;5053519;28;20738;-76
2023/05/20 10:19:59;;;;;;;8.65;4.88;;;;;;;;;;5053509;28;20286;-76
2023/05/20 10:22:30;;;;;;;11.63;5.15;;;;;;;;;;5053207;28;20219;-74
2023/05/20 10:25:00;;;;;;;9.48;4.88;;;;;;;;;;5054115;28;20196;-76
2023/05/20 10:27:28;;;;;;;13.88;5.30;;;;;;;;;;5053630;28;20304;-75
2023/05/20 10:29:56;;;;;;;7.57;4.35;;;;;;;;;;5053112;28;20571;-76
2023/05/20 10:32:30;;;;;;;9.63;4.72;;;;;;;;;;5053593;28;20254;-76
2023/05/20 10:35:00;;;;;;;10.68;4.60;;;;;;;;;;5053381;28;20195;-76
2023/05/20 10:37:28;;;;;;;9.60;5.18;;;;;;;;;;5053280;28;20191;-75
2023/05/20 10:40:04;;;;;;;8.13;4.82;;;;;;;;;;5053286;28;20283;-75
2023/05/20 10:42:31;;;;;;;10.00;4.63;;;;;;;;;;5048123;28;20224;-76
2023/05/20 10:44:58;;;;;;;8.93;5.03;;;;;;;;;;5033829;28;20220;-76
2023/05/20 10:47:26;;;;;;;8.07;4.95;;;;;;;;;;5033272;28;20323;-75
2023/05/20 10:49:54;;;;;;;7.03;4.55;;;;;;;;;;5033370;28;20296;-75
2023/05/20 10:52:21;;;;;;;7.40;4.80;;;;;;;;;;5033352;28;20323;-76
2023/05/20 10:54:55;;;;;;;7.40;4.43;;;;;;;;;;5033287;28;20287;-75
2023/05/20 10:57:23;;;;;;;8.07;4.90;;;;;;;;;;5033029;28;20264;-76
2023/05/20 10:59:51;;;;;;;6.43;4.20;;;;;;;;;;5033378;28;20219;-76
2023/05/20 11:02:18;;;;;;;7.93;4.72;;;;;;;;;;5033422;28;20197;-77
2023/05/20 11:04:46;;;;;;;9.90;5.10;;;;;;;;;;5032680;28;20199;-76
2023/05/20 11:07:25;;;;;;;7.78;4.70;;;;;;;;;;5032831;28;20205;-76
2023/05/20 11:09:52;;;;;;;6.15;4.20;;;;;;;;;;5033144;28;20196;-76
2023/05/20 11:12:20;;;;;;;8.48;4.47;;;;;;;;;;5030375;28;20227;-77
2023/05/20 11:14:48;;;;;;;8.25;4.63;;;;;;;;;;5027147;28;20197;-77
2023/05/20 11:17:17;;;;;;;9.05;4.03;;;;;;;;;;5030088;28;20287;-77
2023/05/20 11:19:44;;;;;;;7.20;4.97;;;;;;;;;;5030000;28;20584;-77
2023/05/20 11:22:11;;;;;;;8.25;4.45;;;;;;;;;;5032318;28;20231;-78
2023/05/20 11:24:40;;;;;;;9.88;4.50;;;;;;;;;;5030191;28;20204;-76
2023/05/20 11:27:07;;;;;;;9.25;4.53;;;;;;;;;;5026800;28;20206;-76
2023/05/20 11:29:34;;;;;;;8.02;4.63;;;;;;;;;;5023491;28;20208;-77
2023/05/20 11:32:01;;;;;;;12.85;4.97;;;;;;;;;;5022931;28;20251;-77
2023/05/20 11:34:33;;;;;;;10.68;4.80;;;;;;;;;;5021870;28;20224;-76
2023/05/20 11:37:01;;;;;;;8.25;4.25;;;;;;;;;;5024233;28;20275;-77
2023/05/20 11:39:30;;;;;;;7.18;4.50;;;;;;;;;;5022573;28;20291;-78
2023/05/20 11:41:59;;;;;;;7.43;4.50;;;;;;;;;;5022033;28;20288;-77
2023/05/20 11:44:26;;;;;;;7.03;4.25;;;;;;;;;;5031631;28;20282;-78
2023/05/20 11:47:00;;;;;;;8.65;4.32;;;;;;;;;;5031282;28;20204;-77
2023/05/20 11:49:27;;;;;;;6.53;4.40;;;;;;;;;;5030381;28;20199;-75
2023/05/20 11:51:54;;;;;;;7.75;4.22;;;;;;;;;;5032063;28;20250;-76
2023/05/20 11:54:23;;;;;;;10.13;4.68;;;;;;;;;;5031137;28;20201;-76
2023/05/20 11:56:50;;;;;;;6.88;4.28;;;;;;;;;;5026848;28;20208;-77
2023/05/20 11:59:19;;;;;;;8.93;4.72;;;;;;;;;;5026888;28;20296;-76
2023/05/20 12:01:46;;;;;;;6.78;4.00;;;;;;;;;;5031699;28;20307;-76
2023/05/20 12:04:13;;;;;;;6.43;4.10;;;;;;;;;;5025169;28;20296;-76
2023/05/20 12:06:41;;;;;;;6.88;3.75;;;;;;;;;;5021256;28;20205;-77
2023/05/20 12:09:09;;;;;;;8.82;4.38;;;;;;;;;;5020190;28;20291;-76
2023/05/20 12:11:38;;;;;;;5.93;3.83;;;;;;;;;;5024107;28;20296;-76
2023/05/20 12:14:06;;;;;;;12.02;4.30;;;;;;;;;;5026249;28;20199;-76
2023/05/20 12:16:35;;;;;;;9.40;4.25;;;;;;;;;;5027873;28;20209;-76
2023/05/20 12:19:03;;;;;;;6.50;3.95;;;;;;;;;;5031449;28;20211;-75
2023/05/20 12:21:30;;;;;;;6.63;3.85;;;;;;;;;;5031282;28;20874;-76
2023/05/20 12:23:58;;;;;;;8.02;3.67;;;;;;;;;;5030971;28;20208;-77
2023/05/20 12:26:26;;;;;;;7.30;3.65;;;;;;;;;;5025266;28;20291;-76
2023/05/20 12:28:53;;;;;;;7.22;3.65;;;;;;;;;;5021098;28;20205;-78
2023/05/20 12:31:21;;;;;;;5.57;3.30;;;;;;;;;;5021448;28;20300;-77
2023/05/20 12:33:49;;;;;;;6.05;3.47;;;;;;;;;;5011458;28;20336;-77
2023/05/20 12:36:18;;;;;;;7.35;3.35;;;;;;;;;;5024215;28;20617;-78
2023/05/20 12:38:45;;;;;;;6.35;3.58;;;;;;;;;;5024399;28;20204;-75
2023/05/20 12:41:12;;;;;;;8.27;3.85;;;;;;;;;;5030861;28;20203;-77
2023/05/20 12:43:39;;;;;;;7.88;4.18;;;;;;;;;;5031333;28;20224;-75
2023/05/20 12:46:07;;;;;;;7.97;3.70;;;;;;;;;;5031024;28;20251;-78
2023/05/20 12:48:34;;;;;;;7.18;3.30;;;;;;;;;;5031218;28;20208;-77
2023/05/20 12:51:02;;;;;;;5.70;3.40;;;;;;;;;;5031356;28;20298;-77
2023/05/20 12:53:30;;;;;;;7.75;3.90;;;;;;;;;;5035111;28;20330;-76
2023/05/20 12:55:57;;;;;;;5.00;3.50;;;;;;;;;;5034476;28;20291;-77
2023/05/20 12:58:24;;;;;;;5.70;3.10;;;;;;;;;;5034293;28;20684;-77
2023/05/20 13:00:51;;;;;;;6.68;3.42;;;;;;;;;;5034730;28;20724;-76
2023/05/20 13:03:18;;;;;;;8.77;3.70;;;;;;;;;;5035283;28;20283;-76
2023/05/20 13:05:46;;;;;;;8.38;3.70;;;;;;;;;;5035127;28;20204;-77
2023/05/20 13:08:14;;;;;;;7.68;3.40;;;;;;;;;;5035479;28;20622;-77
2023/05/20 13:10:41;;;;;;;6.57;3.08;;;;;;;;;;5034839;28;20234;-76
2023/05/20 13:13:09;;;;;;;7.93;3.80;;;;;;;;;;5034822;28;20318;-76
2023/05/20 13:15:36;;;;;;;6.88;3.60;;;;;;;;;;5052030;28;20294;-75
2023/05/20 13:18:05;;;;;;;6.85;3.60;;;;;;;;;;5054759;28;20199;-75
2023/05/20 13:20:32;;;;;;;7.60;4.03;;;;;;;;;;5054727;28;20195;-74
2023/05/20 13:22:59;;;;;;;7.05;3.85;;;;;;;;;;5054924;28;20223;-76
2023/05/20 13:25:28;;;;;;;6.32;3.50;;;;;;;;;;5054504;28;20196;-77
2023/05/20 13:27:55;;;;;;;5.97;3.55;;;;;;;;;;5054500;28;20672;-76
2023/05/20 13:30:22;;;;;;;6.10;3.80;;;;;;;;;;5054585;28;20253;-76
2023/05/20 13:32:50;;;;;;;9.25;4.78;;;;;;;;;;5054303;28;20330;-76
2023/05/20 13:35:17;;;;;;;7.20;3.75;;;;;;;;;;5054325;28;20206;-77
2023/05/20 13:37:44;;;;;;;7.95;4.07;;;;;;;;;;5054580;28;20967;-76
2023/05/20 13:40:12;;;;;;;7.32;3.45;;;;;;;;;;5054331;28;20200;-78
2023/05/20 13:42:40;;;;;;;7.63;3.75;;;;;;;;;;5054723;28;20227;-75
2023/05/20 13:45:08;;;;;;;7.53;3.50;;;;;;;;;;5053741;28;20208;-77
2023/05/20 13:47:35;;;;;;;8.35;3.70;;;;;;;;;;5054510;28;20311;-77
2023/05/20 13:50:03;;;;;;;6.10;3.38;;;;;;;;;;5053812;28;20285;-76
2023/05/20 13:52:30;;;;;;;8.27;3.50;;;;;;;;;;5054216;28;20251;-76
2023/05/20 13:54:57;;;;;;;7.20;3.22;;;;;;;;;;5054181;28;20275;-76
2023/05/20 13:57:24;;;;;;;5.45;3.45;;;;;;;;;;5054477;28;20303;-77
2023/05/20 13:59:53;;;;;;;8.82;3.47;;;;;;;;;;5053749;28;20223;-76
2023/05/20 14:02:20;;;;;;;8.48;3.97;;;;;;;;;;5053676;28;20204;-77
2023/05/20 14:04:47;;;;;;;11.00;3.70;;;;;;;;;;5053284;28;20656;-76
2023/05/20 14:07:14;;;;;;;9.23;4.10;;;;;;;;;;5042439;28;20291;-77
2023/05/20 14:09:41;;;;;;;10.05;3.80;;;;;;;;;;5033530;28;20263;-76
2023/05/20 14:12:09;;;;;;;12.82;4.32;;;;;;;;;;5033952;28;20232;-77
2023/05/20 14:14:36;;;;;;;7.32;4.00;;;;;;;;;;5043135;28;20231;-76
2023/05/20 14:17:05;;;;;;;7.35;3.97;;;;;;;;;;5053710;28;20219;-76
2023/05/20 14:19:32;;;;;;;7.72;3.80;;;;;;;;;;5053823;28;20192;-77
2023/05/20 14:22:00;;;;;;;6.05;3.28;;;;;;;;;;5053912;28;20283;-78
2023/05/20 14:24:27;;;;;;;5.85;3.63;;;;;;;;;;5053190;28;20294;-76
2023/05/20 14:26:54;;;;;;;8.18;4.20;;;;;;;;;;5053176;28;20235;-76
2023/05/20 14:29:21;;;;;;;8.20;3.88;;;;;;;;;;5053027;28;20257;-76
2023/05/20 14:31:48;;;;;;;9.27;4.00;;;;;;;;;;5053248;28;20234;-75